< < Back
Terminal Aerodrome Forecast


Current Version              Previous Versions:   1  2  3  4  5  6  7  8  9  

Terminal Aerodrome Forecast

154
FTUS42 KFFC 260533
TAFFTY
TAF
KFTY 260533Z 2606/2706 08004KT P6SM OVC015
     FM260800 14004KT 3SM BR OVC006
     FM261500 15006KT P6SM OVC012
     FM261700 16007KT P6SM -SHRA OVC025
      TEMPO 2620/2624 3SM TSRA BR OVC015CB
     FM270000 15006KT P6SM SCT030 BKN045=



Latest METAR

832
SAUS70 KWBC 261500 RRB
MTRFTY
METAR KFTY 261453Z 00000KT 10SM OVC015 A3024 RMK AO2 SLPNO 53008 $


USA.gov is the U.S. government's official web portal to all federal, state and local government web resources and services.